Time;durP1;ratioP1;P1;durP2;ratioP2;P2;SDS_P1;SDS_P2;PMS_P1;PMS_P2;Temp;Humidity;BMP_temperature;BMP_pressure;BME280_temperature;BME280_humidity;BME280_pressure;Samples;Min_cycle;Max_cycle;Signal;HPM_P1;HPM_P2
2023/06/21 00:00:32;;;;;;;;;5.50;5.50;;;;;;;;5089934;27;45502;-80
2023/06/21 00:03:01;;;;;;;;;6.00;6.00;;;;;;;;5087799;27;45541;-80
2023/06/21 00:05:26;;;;;;;;;10.75;6.25;;;;;;;;5094299;27;46230;-81
2023/06/21 00:07:54;;;;;;;;;7.75;6.75;;;;;;;;5093107;27;45431;-80
2023/06/21 00:10:23;;;;;;;;;5.50;5.50;;;;;;;;5092888;27;45236;-79
2023/06/21 00:12:49;;;;;;;;;9.33;7.33;;;;;;;;5089866;27;46378;-81
2023/06/21 00:15:14;;;;;;;;;5.00;4.50;;;;;;;;5095614;27;46129;-80
2023/06/21 00:17:39;;;;;;;;;6.25;5.00;;;;;;;;5091862;27;45643;-81
2023/06/21 00:20:06;;;;;;;;;5.75;5.75;;;;;;;;5088347;27;45492;-80
2023/06/21 00:22:35;;;;;;;;;7.00;6.00;;;;;;;;5090463;27;45817;-80
2023/06/21 00:25:01;;;;;;;;;7.75;6.50;;;;;;;;5085872;27;45384;-81
2023/06/21 00:27:26;;;;;;;;;6.25;6.25;;;;;;;;5091121;27;45600;-79
2023/06/21 00:29:51;;;;;;;;;6.75;5.00;;;;;;;;5088537;27;45372;-80
2023/06/21 00:32:16;;;;;;;;;5.75;5.75;;;;;;;;5095667;27;45481;-80
2023/06/21 00:34:42;;;;;;;;;6.50;5.50;;;;;;;;5081765;27;46350;-81
2023/06/21 00:37:07;;;;;;;;;8.75;7.00;;;;;;;;5091493;27;45828;-79
2023/06/21 00:39:32;;;;;;;;;5.25;5.25;;;;;;;;5088451;27;45932;-79
2023/06/21 00:41:58;;;;;;;;;7.25;6.00;;;;;;;;5086083;27;45372;-79
2023/06/21 00:44:23;;;;;;;;;7.50;5.75;;;;;;;;5085327;27;45601;-80
2023/06/21 00:46:52;;;;;;;;;5.00;4.25;;;;;;;;5078346;27;45684;-78
2023/06/21 00:49:17;;;;;;;;;4.75;3.75;;;;;;;;5094807;27;45442;-80
2023/06/21 00:51:44;;;;;;;;;6.50;6.50;;;;;;;;5085467;27;45694;-80
2023/06/21 00:54:15;;;;;;;;;4.00;4.00;;;;;;;;5087036;27;46893;-79
2023/06/21 00:56:41;;;;;;;;;6.50;6.50;;;;;;;;5098572;27;45491;-80
2023/06/21 00:59:06;;;;;;;;;5.25;5.25;;;;;;;;5088176;27;45550;-80
2023/06/21 01:01:34;;;;;;;;;5.50;5.50;;;;;;;;5079001;27;45457;-79
2023/06/21 01:04:00;;;;;;;;;8.25;7.50;;;;;;;;5081472;27;46239;-80
2023/06/21 01:06:25;;;;;;;;;7.00;5.50;;;;;;;;5093207;27;45646;-79
2023/06/21 01:08:50;;;;;;;;;3.50;2.75;;;;;;;;5093619;27;45431;-81
2023/06/21 01:11:16;;;;;;;;;4.00;4.00;;;;;;;;5094835;27;45505;-81
2023/06/21 01:14:00;;;;;;;;;5.00;5.00;;;;;;;;5093393;27;45324;-80
2023/06/21 01:16:29;;;;;;;;;5.00;5.00;;;;;;;;5098901;27;45616;-80
2023/06/21 01:18:54;;;;;;;;;6.25;6.25;;;;;;;;5090661;27;45668;-79
2023/06/21 01:21:23;;;;;;;;;5.25;4.25;;;;;;;;5091310;27;45488;-80
2023/06/21 01:24:25;;;;;;;;;5.75;5.75;;;;;;;;5088118;27;45300;-80
2023/06/21 01:27:03;;;;;;;;;5.50;4.75;;;;;;;;5007415;28;45738;-80
2023/06/21 01:29:33;;;;;;;;;5.00;5.00;;;;;;;;5084650;27;45339;-79
2023/06/21 01:31:59;;;;;;;;;5.50;5.50;;;;;;;;5099765;27;46161;-79
2023/06/21 01:34:24;;;;;;;;;3.00;3.00;;;;;;;;5093898;27;47101;-80
2023/06/21 01:36:50;;;;;;;;;3.75;3.75;;;;;;;;5080393;27;46498;-78
2023/06/21 01:39:16;;;;;;;;;3.75;3.75;;;;;;;;5094204;27;45797;-79
2023/06/21 01:41:41;;;;;;;;;7.00;3.25;;;;;;;;5103780;27;45460;-80
2023/06/21 01:44:09;;;;;;;;;3.75;3.75;;;;;;;;5108806;27;46386;-81
2023/06/21 01:46:34;;;;;;;;;5.00;5.00;;;;;;;;5211738;22;45713;-71
2023/06/21 01:49:02;;;;;;;;;3.00;3.00;;;;;;;;5101808;27;45371;-72
2023/06/21 01:51:28;;;;;;;;;5.00;4.00;;;;;;;;5108963;27;45587;-72
2023/06/21 01:53:55;;;;;;;;;5.50;4.50;;;;;;;;5092438;27;45688;-72
2023/06/21 01:56:21;;;;;;;;;5.50;4.75;;;;;;;;5095210;27;45722;-73
2023/06/21 01:58:47;;;;;;;;;9.25;6.00;;;;;;;;5093271;27;45536;-72
2023/06/21 02:01:13;;;;;;;;;3.50;3.50;;;;;;;;5114186;27;45535;-73
2023/06/21 02:03:54;;;;;;;;;4.25;4.25;;;;;;;;5109154;27;45435;-72
2023/06/21 02:06:26;;;;;;;;;3.75;3.75;;;;;;;;5085398;27;45480;-72
2023/06/21 02:08:52;;;;;;;;;3.75;3.75;;;;;;;;5104421;27;45643;-73
2023/06/21 02:11:18;;;;;;;;;6.00;5.00;;;;;;;;5109989;27;45367;-72
2023/06/21 02:13:45;;;;;;;;;5.00;4.00;;;;;;;;5114732;27;45446;-72
2023/06/21 02:16:11;;;;;;;;;1.00;1.00;;;;;;;;5105524;27;45618;-74
2023/06/21 02:18:36;;;;;;;;;4.50;4.50;;;;;;;;5102314;27;45534;-73
2023/06/21 02:21:02;;;;;;;;;4.00;4.00;;;;;;;;5112585;27;45673;-73
2023/06/21 02:23:28;;;;;;;;;4.75;4.75;;;;;;;;5098948;27;46287;-71
2023/06/21 02:25:53;;;;;;;;;3.75;3.75;;;;;;;;5102513;27;45586;-73
2023/06/21 02:28:20;;;;;;;;;6.00;4.50;;;;;;;;5093967;27;45375;-71
2023/06/21 02:30:45;;;;;;;;;3.50;3.50;;;;;;;;5099384;27;45564;-73
2023/06/21 02:33:10;;;;;;;;;5.75;5.00;;;;;;;;5098157;27;45635;-72
2023/06/21 02:35:36;;;;;;;;;2.75;2.75;;;;;;;;5112673;27;45663;-72
2023/06/21 02:38:01;;;;;;;;;4.67;4.67;;;;;;;;5101993;27;45956;-72
2023/06/21 02:40:26;;;;;;;;;4.25;4.25;;;;;;;;5096761;27;45741;-71
2023/06/21 02:42:52;;;;;;;;;8.00;4.75;;;;;;;;5104602;27;45579;-72
2023/06/21 02:45:18;;;;;;;;;4.50;4.50;;;;;;;;5082305;27;45857;-72
2023/06/21 02:47:43;;;;;;;;;6.25;5.00;;;;;;;;5080572;27;45317;-72
2023/06/21 02:50:08;;;;;;;;;3.25;3.25;;;;;;;;5059696;27;45442;-72
2023/06/21 02:52:34;;;;;;;;;6.25;4.75;;;;;;;;5062614;28;46822;-73
2023/06/21 02:55:01;;;;;;;;;6.00;5.33;;;;;;;;5058377;28;45457;-73
2023/06/21 02:57:26;;;;;;;;;4.00;4.00;;;;;;;;5071540;27;45770;-73
2023/06/21 02:59:51;;;;;;;;;1.50;1.50;;;;;;;;5090376;27;46195;-72
2023/06/21 03:02:16;;;;;;;;;6.50;4.75;;;;;;;;5058671;27;47327;-72
2023/06/21 03:04:42;;;;;;;;;7.00;5.00;;;;;;;;5075159;27;45475;-73
2023/06/21 03:07:07;;;;;;;;;5.75;3.75;;;;;;;;5079328;27;45704;-73
2023/06/21 03:09:33;;;;;;;;;3.00;3.00;;;;;;;;5077790;27;45469;-72
2023/06/21 03:12:00;;;;;;;;;4.25;4.25;;;;;;;;5077695;27;45769;-71
2023/06/21 03:14:26;;;;;;;;;4.33;3.67;;;;;;;;5075837;27;45481;-72
2023/06/21 03:16:51;;;;;;;;;6.25;6.25;;;;;;;;5063048;27;45713;-74
2023/06/21 03:19:17;;;;;;;;;4.00;3.00;;;;;;;;5075919;27;45532;-73
2023/06/21 03:21:43;;;;;;;;;4.00;4.00;;;;;;;;5075425;27;46177;-73
2023/06/21 03:24:08;;;;;;;;;6.33;4.00;;;;;;;;5058280;28;45345;-74
2023/06/21 03:26:35;;;;;;;;;4.33;4.33;;;;;;;;5056891;27;46488;-73
2023/06/21 03:29:02;;;;;;;;;4.00;4.00;;;;;;;;5068669;27;45784;-73
2023/06/21 03:31:29;;;;;;;;;5.67;4.00;;;;;;;;5075320;27;46026;-73
2023/06/21 03:33:54;;;;;;;;;5.00;5.00;;;;;;;;5072816;27;45692;-73
2023/06/21 03:36:19;;;;;;;;;4.33;4.33;;;;;;;;5067578;27;45555;-73
2023/06/21 03:38:45;;;;;;;;;7.33;5.33;;;;;;;;5086602;27;45338;-74
2023/06/21 03:41:10;;;;;;;;;3.75;3.75;;;;;;;;5068210;27;45373;-73
2023/06/21 03:43:35;;;;;;;;;3.25;3.25;;;;;;;;5075262;28;45280;-73
2023/06/21 03:46:01;;;;;;;;;4.33;4.00;;;;;;;;5072614;27;45520;-73
2023/06/21 03:48:26;;;;;;;;;6.67;5.00;;;;;;;;5085208;27;46271;-72
2023/06/21 03:50:51;;;;;;;;;4.50;4.50;;;;;;;;5105289;27;45681;-73
2023/06/21 03:53:17;;;;;;;;;5.67;4.67;;;;;;;;5104942;27;45695;-73
2023/06/21 03:55:43;;;;;;;;;6.25;5.00;;;;;;;;5089620;27;45375;-73
2023/06/21 03:58:08;;;;;;;;;5.75;4.75;;;;;;;;5102649;27;45897;-73
2023/06/21 04:00:34;;;;;;;;;4.00;3.25;;;;;;;;5091529;27;45403;-72
2023/06/21 04:02:59;;;;;;;;;5.75;5.00;;;;;;;;5096305;27;45371;-73
2023/06/21 04:05:24;;;;;;;;;6.50;6.00;;;;;;;;5077704;27;46251;-73
2023/06/21 04:07:49;;;;;;;;;6.00;4.00;;;;;;;;5097430;27;45654;-73
2023/06/21 04:10:15;;;;;;;;;5.00;3.25;;;;;;;;5097149;27;45342;-73
2023/06/21 04:12:40;;;;;;;;;5.75;4.00;;;;;;;;5074849;27;45869;-73
2023/06/21 04:15:06;;;;;;;;;4.50;4.25;;;;;;;;5089560;27;45549;-73
2023/06/21 04:17:31;;;;;;;;;5.00;5.00;;;;;;;;5076179;27;45934;-72
2023/06/21 04:19:56;;;;;;;;;7.25;6.50;;;;;;;;5091581;27;46044;-73
2023/06/21 04:22:23;;;;;;;;;3.50;3.50;;;;;;;;5083627;27;45490;-73
2023/06/21 04:24:49;;;;;;;;;5.75;4.75;;;;;;;;5091446;27;45473;-72
2023/06/21 04:27:14;;;;;;;;;6.00;4.67;;;;;;;;5088034;27;45747;-72
2023/06/21 04:29:40;;;;;;;;;5.00;5.00;;;;;;;;5103578;27;46057;-72
2023/06/21 04:32:06;;;;;;;;;4.75;4.00;;;;;;;;5097062;27;45712;-74
2023/06/21 04:34:33;;;;;;;;;7.00;4.50;;;;;;;;5090761;27;45753;-74
2023/06/21 04:36:59;;;;;;;;;7.50;6.75;;;;;;;;5099250;27;45503;-71
2023/06/21 04:39:24;;;;;;;;;6.00;5.00;;;;;;;;5081857;27;48068;-71
2023/06/21 04:41:52;;;;;;;;;13.33;11.00;;;;;;;;5096562;27;45875;-72
2023/06/21 04:44:17;;;;;;;;;6.00;6.00;;;;;;;;5104929;27;45478;-72
2023/06/21 04:46:44;;;;;;;;;10.33;8.33;;;;;;;;5104117;27;45624;-73
2023/06/21 04:49:09;;;;;;;;;7.75;7.50;;;;;;;;5100424;27;46655;-79
2023/06/21 04:51:35;;;;;;;;;6.00;6.00;;;;;;;;5092034;27;45858;-77
2023/06/21 04:54:00;;;;;;;;;14.33;11.00;;;;;;;;5078787;27;45874;-74
2023/06/21 04:56:26;;;;;;;;;9.75;6.75;;;;;;;;5093326;27;45976;-75
2023/06/21 04:58:51;;;;;;;;;9.00;9.00;;;;;;;;5090969;27;45437;-76
2023/06/21 05:01:17;;;;;;;;;9.00;8.00;;;;;;;;5077889;27;45687;-77
2023/06/21 05:03:47;;;;;;;;;9.25;9.25;;;;;;;;5095478;27;45491;-76
2023/06/21 05:06:12;;;;;;;;;7.50;7.50;;;;;;;;5095377;27;46472;-77
2023/06/21 05:08:38;;;;;;;;;9.00;6.25;;;;;;;;5089228;27;45461;-71
2023/06/21 05:11:03;;;;;;;;;7.00;6.00;;;;;;;;5105402;27;45472;-71
2023/06/21 05:13:28;;;;;;;;;7.25;7.00;;;;;;;;5084000;27;45535;-70
2023/06/21 05:15:53;;;;;;;;;10.25;6.50;;;;;;;;5095584;27;46172;-70
2023/06/21 05:18:19;;;;;;;;;8.25;6.00;;;;;;;;5084153;27;46579;-71
2023/06/21 05:20:44;;;;;;;;;4.50;4.50;;;;;;;;5081715;27;45808;-73
2023/06/21 05:23:09;;;;;;;;;9.00;5.50;;;;;;;;5083861;27;46077;-71
2023/06/21 05:25:34;;;;;;;;;9.25;6.75;;;;;;;;5090056;27;45878;-71
2023/06/21 05:28:00;;;;;;;;;5.25;5.25;;;;;;;;5095251;27;45704;-70
2023/06/21 05:30:25;;;;;;;;;8.25;6.25;;;;;;;;5094187;27;45921;-70
2023/06/21 05:32:50;;;;;;;;;7.50;5.75;;;;;;;;5092847;27;45959;-71
2023/06/21 05:35:15;;;;;;;;;6.50;6.50;;;;;;;;5093860;27;45468;-70
2023/06/21 05:37:41;;;;;;;;;7.00;7.00;;;;;;;;5090824;27;46530;-72
2023/06/21 05:40:08;;;;;;;;;6.75;6.00;;;;;;;;5082879;27;45558;-72
2023/06/21 05:42:34;;;;;;;;;7.00;7.00;;;;;;;;5092075;27;45696;-72
2023/06/21 05:44:59;;;;;;;;;8.50;8.50;;;;;;;;5083279;27;45694;-69
2023/06/21 05:47:24;;;;;;;;;5.25;5.25;;;;;;;;5091089;27;46094;-71
2023/06/21 05:49:49;;;;;;;;;7.00;7.00;;;;;;;;5088533;27;45901;-74
2023/06/21 05:52:18;;;;;;;;;6.00;6.00;;;;;;;;5077014;27;45909;-75
2023/06/21 05:54:44;;;;;;;;;6.00;6.00;;;;;;;;5094784;27;45497;-73
2023/06/21 05:57:10;;;;;;;;;4.75;4.75;;;;;;;;5087863;27;45507;-79
2023/06/21 05:59:35;;;;;;;;;5.25;5.00;;;;;;;;5085402;27;46473;-74
2023/06/21 06:02:00;;;;;;;;;6.50;5.50;;;;;;;;5092866;27;45396;-75
2023/06/21 06:04:25;;;;;;;;;9.50;5.50;;;;;;;;5078513;27;45835;-74
2023/06/21 06:06:51;;;;;;;;;5.75;5.75;;;;;;;;5085867;27;45758;-73
2023/06/21 06:09:16;;;;;;;;;6.00;6.00;;;;;;;;5088688;27;45651;-73
2023/06/21 06:11:41;;;;;;;;;6.25;5.25;;;;;;;;5068588;27;45531;-72
2023/06/21 06:14:08;;;;;;;;;5.25;5.00;;;;;;;;5098863;27;45278;-73
2023/06/21 06:16:34;;;;;;;;;5.75;5.75;;;;;;;;5094063;27;45662;-74
2023/06/21 06:18:59;;;;;;;;;9.50;7.00;;;;;;;;5097610;27;45436;-72
2023/06/21 06:21:25;;;;;;;;;8.00;7.00;;;;;;;;5081993;27;45849;-73
2023/06/21 06:23:51;;;;;;;;;5.75;5.75;;;;;;;;5087313;27;45676;-72
2023/06/21 06:26:20;;;;;;;;;5.50;3.75;;;;;;;;5098133;27;45709;-73
2023/06/21 06:28:45;;;;;;;;;5.25;5.25;;;;;;;;5103064;27;45528;-72
2023/06/21 06:31:31;;;;;;;;;5.75;5.00;;;;;;;;5088825;27;45428;-81
2023/06/21 06:33:56;;;;;;;;;6.50;4.50;;;;;;;;5099020;27;45605;-68
2023/06/21 06:36:21;;;;;;;;;4.50;4.50;;;;;;;;5092295;27;45725;-72
2023/06/21 06:38:50;;;;;;;;;5.25;3.50;;;;;;;;5092930;27;45765;-71
2023/06/21 06:41:17;;;;;;;;;5.00;5.00;;;;;;;;5085508;27;45682;-73
2023/06/21 06:43:42;;;;;;;;;4.00;4.00;;;;;;;;5095486;27;45820;-73
2023/06/21 06:46:08;;;;;;;;;5.75;5.75;;;;;;;;5089182;27;45701;-71
2023/06/21 06:48:33;;;;;;;;;5.00;4.25;;;;;;;;5103611;27;45521;-72
2023/06/21 06:50:59;;;;;;;;;4.50;4.50;;;;;;;;5099551;27;45558;-71
2023/06/21 06:53:24;;;;;;;;;4.25;4.25;;;;;;;;5095964;27;45963;-71
2023/06/21 06:55:53;;;;;;;;;3.75;3.75;;;;;;;;5077406;27;46853;-72
2023/06/21 06:58:19;;;;;;;;;4.75;3.75;;;;;;;;5097679;27;45698;-72
2023/06/21 07:00:44;;;;;;;;;3.50;3.50;;;;;;;;5105221;27;45588;-71
2023/06/21 07:03:10;;;;;;;;;4.00;4.00;;;;;;;;5097447;27;45623;-72
2023/06/21 07:05:35;;;;;;;;;5.75;5.00;;;;;;;;5080385;27;47102;-71
2023/06/21 07:08:01;;;;;;;;;4.50;3.50;;;;;;;;5099629;27;45365;-70
2023/06/21 07:10:27;;;;;;;;;3.00;3.00;;;;;;;;5091629;27;45534;-72
2023/06/21 07:12:52;;;;;;;;;4.75;4.75;;;;;;;;5068196;27;45514;-72
2023/06/21 07:15:17;;;;;;;;;5.25;5.25;;;;;;;;5087438;27;45985;-72
2023/06/21 07:17:42;;;;;;;;;4.00;4.00;;;;;;;;5090076;27;45574;-71
2023/06/21 07:20:08;;;;;;;;;4.50;4.50;;;;;;;;5091631;27;45847;-71
2023/06/21 07:22:33;;;;;;;;;4.75;3.50;;;;;;;;5099863;27;45755;-72
2023/06/21 07:24:58;;;;;;;;;5.25;5.25;;;;;;;;5103289;27;45778;-72
2023/06/21 07:27:25;;;;;;;;;5.75;4.75;;;;;;;;5099249;27;45672;-73
2023/06/21 07:29:51;;;;;;;;;3.00;2.00;;;;;;;;5107912;27;45366;-71
2023/06/21 07:32:16;;;;;;;;;4.50;3.75;;;;;;;;5108112;27;45676;-73
2023/06/21 07:34:41;;;;;;;;;3.75;3.75;;;;;;;;5101425;27;45667;-72
2023/06/21 07:37:06;;;;;;;;;4.50;3.25;;;;;;;;5104095;27;45750;-72
2023/06/21 07:39:32;;;;;;;;;3.25;3.00;;;;;;;;5094736;27;45291;-72
2023/06/21 07:42:01;;;;;;;;;3.75;3.75;;;;;;;;5089546;27;45712;-72
2023/06/21 07:44:26;;;;;;;;;3.00;3.00;;;;;;;;5097588;27;46559;-72
2023/06/21 07:46:52;;;;;;;;;3.25;3.00;;;;;;;;5080904;27;45400;-74
2023/06/21 07:49:17;;;;;;;;;3.25;2.00;;;;;;;;5085075;27;45466;-73
2023/06/21 07:51:43;;;;;;;;;2.00;2.00;;;;;;;;5096895;27;45477;-70
2023/06/21 07:54:08;;;;;;;;;4.00;3.00;;;;;;;;5094499;27;45250;-69
2023/06/21 07:56:33;;;;;;;;;2.25;2.25;;;;;;;;5087226;27;45793;-76
2023/06/21 07:58:58;;;;;;;;;2.00;2.00;;;;;;;;5094306;27;45501;-76
2023/06/21 08:01:24;;;;;;;;;2.00;2.00;;;;;;;;5103422;27;45689;-75
2023/06/21 08:03:49;;;;;;;;;3.00;3.00;;;;;;;;5104680;27;46231;-71
2023/06/21 08:06:16;;;;;;;;;0.75;0.00;;;;;;;;5099166;27;45460;-73
2023/06/21 08:08:41;;;;;;;;;5.00;4.00;;;;;;;;5098100;27;45837;-74
2023/06/21 08:11:06;;;;;;;;;2.25;2.25;;;;;;;;5095268;27;45933;-73
2023/06/21 08:13:31;;;;;;;;;5.00;3.25;;;;;;;;5098193;27;45470;-70
2023/06/21 08:15:57;;;;;;;;;2.50;2.50;;;;;;;;5101142;27;45585;-76
2023/06/21 08:18:22;;;;;;;;;2.00;2.00;;;;;;;;5097482;27;45308;-71
2023/06/21 08:20:47;;;;;;;;;3.75;3.75;;;;;;;;5088689;27;45367;-71
2023/06/21 08:23:12;;;;;;;;;2.00;1.00;;;;;;;;5087199;27;45401;-77
2023/06/21 08:25:38;;;;;;;;;2.25;2.25;;;;;;;;5083399;27;45708;-71
2023/06/21 08:28:04;;;;;;;;;0.00;0.00;;;;;;;;5080102;27;45522;-72
2023/06/21 08:30:29;;;;;;;;;5.50;3.75;;;;;;;;5080093;27;45501;-72
2023/06/21 08:32:54;;;;;;;;;5.00;4.00;;;;;;;;5073476;27;46920;-72
2023/06/21 08:35:20;;;;;;;;;2.00;2.00;;;;;;;;5092833;27;45537;-73
2023/06/21 08:37:56;;;;;;;;;4.50;3.00;;;;;;;;5095024;27;45940;-71
2023/06/21 08:40:25;;;;;;;;;1.00;1.00;;;;;;;;5082484;27;45669;-72
2023/06/21 08:42:51;;;;;;;;;2.25;2.25;;;;;;;;5083385;27;46238;-74
2023/06/21 08:45:16;;;;;;;;;3.00;3.00;;;;;;;;5100298;27;45508;-71
2023/06/21 08:47:42;;;;;;;;;4.50;3.75;;;;;;;;5094683;27;45436;-71
2023/06/21 08:50:08;;;;;;;;;2.50;2.50;;;;;;;;5097654;27;45562;-70
2023/06/21 08:52:35;;;;;;;;;4.00;4.00;;;;;;;;5097518;27;45750;-72
2023/06/21 08:55:05;;;;;;;;;5.75;4.25;;;;;;;;5091435;27;46993;-71
2023/06/21 08:57:32;;;;;;;;;3.25;3.25;;;;;;;;5102097;27;45884;-72
2023/06/21 09:00:01;;;;;;;;;4.00;2.50;;;;;;;;5107533;27;45442;-75
2023/06/21 09:02:35;;;;;;;;;4.00;4.00;;;;;;;;5094402;27;46438;-70
2023/06/21 09:05:03;;;;;;;;;4.00;4.00;;;;;;;;5098644;27;45621;-73
2023/06/21 09:07:29;;;;;;;;;2.75;2.75;;;;;;;;5103357;27;45328;-72
2023/06/21 09:09:56;;;;;;;;;4.00;4.00;;;;;;;;5094198;27;45622;-71
2023/06/21 09:12:21;;;;;;;;;3.00;3.00;;;;;;;;5105471;27;45678;-73
2023/06/21 09:14:47;;;;;;;;;3.00;3.00;;;;;;;;5076787;27;45756;-72
2023/06/21 09:17:13;;;;;;;;;2.75;2.75;;;;;;;;5068177;27;45371;-71
2023/06/21 09:19:38;;;;;;;;;3.50;3.50;;;;;;;;5069317;27;45533;-71
2023/06/21 09:22:04;;;;;;;;;2.50;2.50;;;;;;;;5104057;27;46933;-71
2023/06/21 09:24:29;;;;;;;;;4.67;4.00;;;;;;;;5090752;27;45711;-75
2023/06/21 09:26:54;;;;;;;;;5.00;3.33;;;;;;;;5069906;27;45429;-73
2023/06/21 09:29:20;;;;;;;;;4.00;3.00;;;;;;;;5073050;27;46276;-72
2023/06/21 09:31:45;;;;;;;;;2.00;2.00;;;;;;;;5073964;27;46669;-73
2023/06/21 09:34:10;;;;;;;;;7.00;4.50;;;;;;;;5092906;27;45484;-74
2023/06/21 09:36:36;;;;;;;;;2.75;2.75;;;;;;;;5096637;27;45356;-73
2023/06/21 09:39:10;;;;;;;;;7.33;6.33;;;;;;;;5070244;27;46098;-72
2023/06/21 09:41:36;;;;;;;;;3.25;3.25;;;;;;;;5104421;27;46469;-72
2023/06/21 09:44:02;;;;;;;;;4.75;3.00;;;;;;;;5090901;27;45371;-73
2023/06/21 09:46:27;;;;;;;;;3.00;3.00;;;;;;;;5089847;27;45859;-71
2023/06/21 09:48:53;;;;;;;;;5.00;5.00;;;;;;;;5088820;27;46083;-71
2023/06/21 09:51:22;;;;;;;;;4.00;2.75;;;;;;;;5096580;27;45942;-72
2023/06/21 09:53:50;;;;;;;;;3.50;3.50;;;;;;;;5066952;27;45756;-72
2023/06/21 09:56:16;;;;;;;;;3.00;3.00;;;;;;;;5110828;27;45418;-70
2023/06/21 09:58:43;;;;;;;;;5.50;4.50;;;;;;;;5079920;27;46588;-71
2023/06/21 10:01:08;;;;;;;;;4.00;3.00;;;;;;;;5096084;27;45490;-72
2023/06/21 10:03:34;;;;;;;;;32.33;29.33;;;;;;;;5103140;27;45815;-72
2023/06/21 10:06:01;;;;;;;;;8.50;8.50;;;;;;;;5087719;27;45705;-72
2023/06/21 10:08:33;;;;;;;;;4.50;4.50;;;;;;;;5081869;27;45473;-71
2023/06/21 10:10:59;;;;;;;;;5.00;5.00;;;;;;;;5089522;27;46494;-73
2023/06/21 10:13:37;;;;;;;;;4.25;4.25;;;;;;;;5085421;27;45856;-72
2023/06/21 10:16:03;;;;;;;;;4.75;4.00;;;;;;;;5085792;27;45581;-73
2023/06/21 10:18:29;;;;;;;;;5.50;4.50;;;;;;;;5069489;27;46980;-74
2023/06/21 10:21:00;;;;;;;;;4.00;4.00;;;;;;;;5089364;27;45649;-76
2023/06/21 10:23:34;;;;;;;;;5.00;5.00;;;;;;;;5089857;27;45500;-79
2023/06/21 10:26:00;;;;;;;;;3.50;3.25;;;;;;;;5100274;27;45523;-74
2023/06/21 10:28:28;;;;;;;;;7.75;7.25;;;;;;;;5079957;27;45436;-71
2023/06/21 10:30:56;;;;;;;;;13.50;12.00;;;;;;;;5098071;27;45728;-74
2023/06/21 10:33:21;;;;;;;;;12.00;10.25;;;;;;;;5099696;27;45802;-77
2023/06/21 10:35:48;;;;;;;;;5.25;5.25;;;;;;;;5102249;27;45491;-72
2023/06/21 10:38:31;;;;;;;;;5.00;5.00;;;;;;;;5105932;27;46487;-76
2023/06/21 10:40:57;;;;;;;;;4.25;4.00;;;;;;;;5085054;27;46082;-80
2023/06/21 10:43:23;;;;;;;;;12.00;10.75;;;;;;;;5101108;27;45866;-73
2023/06/21 10:45:49;;;;;;;;;3.00;3.00;;;;;;;;5100659;27;45400;-73
2023/06/21 10:48:16;;;;;;;;;4.75;4.75;;;;;;;;5106504;27;45684;-73
2023/06/21 10:50:41;;;;;;;;;8.00;5.50;;;;;;;;5103463;27;46259;-73
2023/06/21 10:53:08;;;;;;;;;7.00;6.00;;;;;;;;5082806;27;45400;-73
2023/06/21 10:55:34;;;;;;;;;5.50;5.25;;;;;;;;5101260;27;45400;-75
2023/06/21 10:57:59;;;;;;;;;8.75;7.75;;;;;;;;5115033;27;45408;-74
2023/06/21 11:00:25;;;;;;;;;5.00;5.00;;;;;;;;5082579;27;46955;-74
2023/06/21 11:02:54;;;;;;;;;7.50;7.50;;;;;;;;5095383;27;45720;-73
2023/06/21 11:05:20;;;;;;;;;4.00;3.00;;;;;;;;5097604;27;45679;-76
2023/06/21 11:07:48;;;;;;;;;5.00;4.00;;;;;;;;5082340;27;45584;-73
2023/06/21 11:10:13;;;;;;;;;3.75;3.75;;;;;;;;5101953;27;46631;-70
2023/06/21 11:12:38;;;;;;;;;3.75;3.75;;;;;;;;5079079;27;45590;-69
2023/06/21 11:15:04;;;;;;;;;2.75;2.75;;;;;;;;5103207;27;45379;-70
2023/06/21 11:17:33;;;;;;;;;5.75;5.75;;;;;;;;5103734;27;45519;-74
2023/06/21 11:20:17;;;;;;;;;6.75;4.25;;;;;;;;5081463;27;45798;-69
2023/06/21 11:22:53;;;;;;;;;4.00;4.00;;;;;;;;5094453;27;46947;-70
2023/06/21 11:25:19;;;;;;;;;3.75;3.75;;;;;;;;5091380;27;46393;-69
2023/06/21 11:27:44;;;;;;;;;4.50;4.00;;;;;;;;5089765;27;45837;-69
2023/06/21 11:30:10;;;;;;;;;6.50;5.50;;;;;;;;5092700;27;45996;-69
2023/06/21 11:32:52;;;;;;;;;4.25;3.25;;;;;;;;5074393;27;45788;-70
2023/06/21 11:35:17;;;;;;;;;18.75;15.50;;;;;;;;5083975;27;45751;-69
2023/06/21 11:37:44;;;;;;;;;5.00;4.00;;;;;;;;5096176;27;46247;-70
2023/06/21 11:40:18;;;;;;;;;2.00;2.00;;;;;;;;5083319;27;46088;-76
2023/06/21 11:42:43;;;;;;;;;4.75;3.00;;;;;;;;5086612;27;45422;-73
2023/06/21 11:45:19;;;;;;;;;4.00;4.00;;;;;;;;5090153;27;45652;-75
2023/06/21 11:48:03;;;;;;;;;4.00;4.00;;;;;;;;5082016;27;47601;-73
2023/06/21 11:50:33;;;;;;;;;5.25;4.75;;;;;;;;5073641;27;47894;-75
2023/06/21 11:53:14;;;;;;;;;6.50;5.50;;;;;;;;5086533;27;45554;-75
2023/06/21 11:55:39;;;;;;;;;3.50;3.50;;;;;;;;5098101;27;45662;-75
2023/06/21 11:58:09;;;;;;;;;5.75;4.00;;;;;;;;5081860;27;45963;-73
2023/06/21 12:00:34;;;;;;;;;6.00;4.00;;;;;;;;5090315;27;45740;-76
2023/06/21 12:03:01;;;;;;;;;4.75;4.75;;;;;;;;5087029;27;45420;-74
2023/06/21 12:05:26;;;;;;;;;4.00;3.00;;;;;;;;5087821;27;45620;-74
2023/06/21 12:07:51;;;;;;;;;4.00;4.00;;;;;;;;5107730;27;45852;-73
2023/06/21 12:10:17;;;;;;;;;2.50;2.50;;;;;;;;5091849;27;46542;-75
2023/06/21 12:12:43;;;;;;;;;8.25;5.25;;;;;;;;5069644;27;45628;-73
2023/06/21 12:15:08;;;;;;;;;6.00;5.25;;;;;;;;5090364;27;45487;-75
2023/06/21 12:17:34;;;;;;;;;3.50;3.50;;;;;;;;5085207;27;46861;-76
2023/06/21 12:20:04;;;;;;;;;3.25;3.25;;;;;;;;5086317;27;48255;-76
2023/06/21 12:22:30;;;;;;;;;3.00;3.00;;;;;;;;5088579;27;45316;-73
2023/06/21 12:24:55;;;;;;;;;2.50;2.50;;;;;;;;5099517;27;45319;-74
2023/06/21 12:27:20;;;;;;;;;4.25;3.00;;;;;;;;5091832;27;45521;-72
2023/06/21 12:29:46;;;;;;;;;5.00;5.00;;;;;;;;5089571;27;45482;-72
2023/06/21 12:32:14;;;;;;;;;5.00;4.00;;;;;;;;5072050;27;45836;-73
2023/06/21 12:34:40;;;;;;;;;7.25;6.25;;;;;;;;5088747;27;45473;-73
2023/06/21 12:37:05;;;;;;;;;2.00;2.00;;;;;;;;5069226;27;45566;-73
2023/06/21 12:39:37;;;;;;;;;3.75;3.75;;;;;;;;5094286;27;45446;-73
2023/06/21 12:42:04;;;;;;;;;5.00;5.00;;;;;;;;5087824;27;45700;-76
2023/06/21 12:44:31;;;;;;;;;5.00;5.00;;;;;;;;5091948;27;45309;-73
2023/06/21 12:46:57;;;;;;;;;4.75;4.50;;;;;;;;5087659;27;45388;-75
2023/06/21 12:49:23;;;;;;;;;4.00;4.00;;;;;;;;5092419;27;45640;-73
2023/06/21 12:51:48;;;;;;;;;6.25;6.00;;;;;;;;5094565;27;45484;-77
2023/06/21 12:54:17;;;;;;;;;5.25;5.25;;;;;;;;5097815;27;45716;-74
2023/06/21 12:56:45;;;;;;;;;4.50;4.00;;;;;;;;5094364;27;45493;-71
2023/06/21 12:59:10;;;;;;;;;4.00;4.00;;;;;;;;5087929;27;46073;-73
2023/06/21 13:01:37;;;;;;;;;4.50;4.00;;;;;;;;5095914;27;45435;-73
2023/06/21 13:04:09;;;;;;;;;6.75;4.00;;;;;;;;5087179;27;45443;-73
2023/06/21 13:06:35;;;;;;;;;4.00;4.00;;;;;;;;5093976;27;45784;-71
2023/06/21 13:09:00;;;;;;;;;7.00;5.75;;;;;;;;5105413;27;45981;-69
2023/06/21 13:11:26;;;;;;;;;3.00;3.00;;;;;;;;5099946;27;45434;-71
2023/06/21 13:13:51;;;;;;;;;4.25;4.25;;;;;;;;5101362;27;45825;-72
2023/06/21 13:16:17;;;;;;;;;4.25;4.25;;;;;;;;5107792;27;45414;-73
2023/06/21 13:18:47;;;;;;;;;5.00;5.00;;;;;;;;5088334;27;45658;-77
2023/06/21 13:21:13;;;;;;;;;5.00;4.00;;;;;;;;5089452;27;45508;-76
2023/06/21 13:23:38;;;;;;;;;5.00;5.00;;;;;;;;5085487;27;45841;-78
2023/06/21 13:26:04;;;;;;;;;5.00;5.00;;;;;;;;5106714;27;45450;-76
2023/06/21 13:28:29;;;;;;;;;5.75;5.75;;;;;;;;5094458;27;45447;-76
2023/06/21 13:30:55;;;;;;;;;5.00;5.00;;;;;;;;5070914;27;45468;-74
2023/06/21 13:33:23;;;;;;;;;5.50;5.50;;;;;;;;5088148;27;45590;-77
2023/06/21 13:35:48;;;;;;;;;5.00;5.00;;;;;;;;5070018;27;45492;-75
2023/06/21 13:38:13;;;;;;;;;9.50;6.00;;;;;;;;5077480;27;47145;-76
2023/06/21 13:40:39;;;;;;;;;6.25;5.25;;;;;;;;5092701;27;45338;-78
2023/06/21 13:43:04;;;;;;;;;5.50;5.50;;;;;;;;5099582;27;45414;-77
2023/06/21 13:45:30;;;;;;;;;5.75;5.75;;;;;;;;5098631;27;46443;-75
2023/06/21 13:47:55;;;;;;;;;6.00;6.00;;;;;;;;5103866;27;46286;-77
2023/06/21 13:50:20;;;;;;;;;6.00;5.25;;;;;;;;5102978;27;45569;-76
2023/06/21 13:52:45;;;;;;;;;5.00;4.00;;;;;;;;5093294;27;45448;-77
2023/06/21 13:55:13;;;;;;;;;5.50;5.50;;;;;;;;5114114;27;45316;-77
2023/06/21 13:57:41;;;;;;;;;6.00;6.00;;;;;;;;5094758;27;46279;-78
2023/06/21 14:00:13;;;;;;;;;9.00;7.75;;;;;;;;5087494;27;45619;-75
2023/06/21 14:02:38;;;;;;;;;6.00;6.00;;;;;;;;5100143;27;45384;-78
2023/06/21 14:05:03;;;;;;;;;4.50;3.25;;;;;;;;5093478;27;45578;-76
2023/06/21 14:07:28;;;;;;;;;8.50;6.50;;;;;;;;5095024;27;47086;-76
2023/06/21 14:09:54;;;;;;;;;7.00;5.50;;;;;;;;5088869;27;45846;-75
2023/06/21 14:12:19;;;;;;;;;6.00;6.00;;;;;;;;5094899;27;45893;-75
2023/06/21 14:14:44;;;;;;;;;6.00;6.00;;;;;;;;5101105;27;45721;-77
2023/06/21 14:17:11;;;;;;;;;6.00;6.00;;;;;;;;5098091;27;45864;-76
2023/06/21 14:19:40;;;;;;;;;4.00;4.00;;;;;;;;5094900;27;45676;-74
2023/06/21 14:22:07;;;;;;;;;7.00;5.50;;;;;;;;5088917;27;45721;-77
2023/06/21 14:24:32;;;;;;;;;6.00;6.00;;;;;;;;5082509;27;45772;-76
2023/06/21 14:26:57;;;;;;;;;4.00;4.00;;;;;;;;5097655;27;45696;-77
2023/06/21 14:29:23;;;;;;;;;5.25;5.25;;;;;;;;5106265;27;45466;-77
2023/06/21 14:31:48;;;;;;;;;5.00;4.00;;;;;;;;5096783;27;45490;-78
2023/06/21 14:34:13;;;;;;;;;4.50;4.00;;;;;;;;5108716;27;45705;-78
2023/06/21 14:36:40;;;;;;;;;4.00;3.00;;;;;;;;5095366;27;45449;-76
2023/06/21 14:39:06;;;;;;;;;3.75;3.75;;;;;;;;5103335;27;45392;-79